Time;durP1;ratioP1;P1;durP2;ratioP2;P2;SDS_P1;SDS_P2;PMS_P1;PMS_P2;Temp;Humidity;BMP_temperature;BMP_pressure;BME280_temperature;BME280_humidity;BME280_pressure;Samples;Min_cycle;Max_cycle;Signal;HPM_P1;HPM_P2
2022/07/07 07:57:17;;;;;;;8.57;8.05;;;16.30;99.90;;;;;;5090839;28;20540;-71
2022/07/07 07:59:43;;;;;;;8.43;7.60;;;15.20;99.90;;;;;;5090880;28;20176;-71
2022/07/07 08:02:08;;;;;;;6.97;6.30;;;15.10;99.90;;;;;;5090758;28;20172;-85
2022/07/07 08:04:34;;;;;;;6.90;6.30;;;15.20;99.90;;;;;;5090798;28;20528;-71
2022/07/07 08:06:59;;;;;;;7.00;6.40;;;15.30;99.90;;;;;;5090737;28;20713;-71
2022/07/07 08:09:26;;;;;;;4.40;4.03;;;15.30;99.90;;;;;;5090599;28;20168;-71
2022/07/07 08:11:52;;;;;;;3.78;3.47;;;15.30;99.90;;;;;;5090619;28;20167;-70
2022/07/07 08:14:18;;;;;;;8.38;3.95;;;15.40;99.90;;;;;;5090595;28;20531;-71
2022/07/07 08:16:43;;;;;;;3.08;2.90;;;15.30;99.90;;;;;;5090535;28;20246;-71
2022/07/07 08:19:09;;;;;;;3.33;3.03;;;15.50;99.90;;;;;;5089222;28;20167;-70
2022/07/07 08:21:35;;;;;;;3.22;2.85;;;15.50;99.90;;;;;;5090423;28;20171;-71
2022/07/07 08:24:01;;;;;;;5.55;2.95;;;15.40;99.90;;;;;;5090368;28;20164;-74
2022/07/07 08:26:27;;;;;;;7.20;2.40;;;15.40;99.90;;;;;;5090333;28;20187;-74
2022/07/07 08:28:53;;;;;;;4.95;2.63;;;15.30;99.90;;;;;;5090280;28;20234;-76
2022/07/07 08:31:21;;;;;;;4.60;2.50;;;15.20;99.90;;;;;;5088923;28;20189;-75
2022/07/07 08:33:50;;;;;;;4.95;3.08;;;15.10;99.90;;;;;;5090211;28;20194;-74
2022/07/07 08:36:16;;;;;;;4.38;3.08;;;15.00;99.90;;;;;;5089813;28;20196;-76
2022/07/07 08:38:42;;;;;;;4.03;2.30;;;15.00;99.90;;;;;;5088781;28;20182;-75
2022/07/07 08:41:07;;;;;;;2.50;2.30;;;14.90;99.90;;;;;;5090084;28;20168;-76
2022/07/07 08:43:34;;;;;;;4.35;2.42;;;14.90;99.90;;;;;;5089903;28;20263;-76
2022/07/07 08:46:00;;;;;;;2.63;2.42;;;14.90;99.90;;;;;;5089960;28;20254;-76
2022/07/07 08:48:26;;;;;;;4.15;2.63;;;15.00;99.90;;;;;;5088494;28;20180;-75
2022/07/07 08:50:51;;;;;;;5.65;2.90;;;14.90;99.90;;;;;;5089889;28;20168;-75
2022/07/07 08:53:18;;;;;;;4.35;3.35;;;14.80;99.90;;;;;;5089732;28;20598;-74
2022/07/07 08:55:47;;;;;;;5.93;3.10;;;14.70;99.90;;;;;;5089562;28;20319;-75
2022/07/07 08:58:15;;;;;;;6.95;3.30;;;14.80;99.90;;;;;;5089798;28;20164;-75
2022/07/07 09:00:40;;;;;;;2.40;2.20;;;14.80;99.90;;;;;;5088444;28;20663;-75
2022/07/07 09:03:07;;;;;;;2.80;2.30;;;14.90;99.90;;;;;;5089516;28;20160;-74
2022/07/07 09:05:37;;;;;;;5.20;2.30;;;15.00;99.90;;;;;;5089576;28;20164;-75
2022/07/07 09:08:19;;;;;;;4.40;2.65;;;15.20;99.90;;;;;;5079352;28;20172;-76
2022/07/07 09:10:45;;;;;;;5.97;2.65;;;15.50;99.90;;;;;;5076046;28;20641;-76
2022/07/07 09:13:31;;;;;;;3.35;2.15;;;15.60;99.90;;;;;;5075965;28;20173;-76
2022/07/07 09:16:04;;;;;;;4.80;2.20;;;15.80;99.90;;;;;;5074559;28;20196;-73
2022/07/07 09:18:33;;;;;;;5.07;2.38;;;15.90;99.90;;;;;;5074699;28;20165;-73
2022/07/07 09:20:59;;;;;;;6.70;1.83;;;16.00;99.90;;;;;;5074613;28;20192;-73
2022/07/07 09:23:26;;;;;;;4.97;2.28;;;16.00;99.90;;;;;;5075819;28;20167;-72
2022/07/07 09:25:52;;;;;;;2.78;2.20;;;16.00;99.90;;;;;;5075781;28;20168;-74
2022/07/07 09:28:17;;;;;;;6.35;2.83;;;16.00;99.90;;;;;;5075741;28;20214;-72
2022/07/07 09:30:46;;;;;;;3.28;2.58;;;16.00;99.90;;;;;;5074381;28;20222;-75
2022/07/07 09:33:20;;;;;;;7.50;2.92;;;16.00;99.90;;;;;;5075595;28;20172;-74
2022/07/07 09:38:33;;;;;;;9.02;2.40;;;16.30;99.90;;;;;;5075802;28;20243;-83
2022/07/07 09:41:03;;;;;;;4.25;2.40;;;16.20;99.90;;;;;;5075403;28;20172;-75
2022/07/07 09:43:37;;;;;;;3.53;2.13;;;16.00;99.90;;;;;;5074112;28;20180;-72
2022/07/07 09:46:23;;;;;;;9.20;2.00;;;15.60;99.90;;;;;;5075288;28;20711;-74
2022/07/07 09:48:52;;;;;;;2.08;1.98;;;15.30;99.90;;;;;;5075273;28;20182;-74
2022/07/07 09:51:28;;;;;;;3.22;2.45;;;14.90;99.90;;;;;;5073988;28;20647;-74
2022/07/07 09:54:01;;;;;;;5.70;3.00;;;14.60;99.90;;;;;;5075141;28;20167;-75
2022/07/07 09:56:38;;;;;;;8.27;3.65;;;14.60;99.90;;;;;;5073736;28;20220;-75
2022/07/07 09:59:06;;;;;;;10.63;4.43;;;14.60;99.90;;;;;;5075218;28;20164;-75
2022/07/07 10:01:35;;;;;;;3.65;3.35;;;14.50;99.90;;;;;;5075103;28;20171;-75
2022/07/07 10:04:03;;;;;;;3.05;2.85;;;14.50;99.90;;;;;;5074923;28;20641;-74
2022/07/07 10:06:31;;;;;;;5.95;2.72;;;14.50;99.90;;;;;;5074933;28;20187;-75
2022/07/07 10:09:00;;;;;;;2.13;2.00;;;14.50;99.90;;;;;;5074963;28;20165;-75
2022/07/07 10:11:36;;;;;;;1.85;1.75;;;14.60;99.90;;;;;;5074957;28;20176;-75
2022/07/07 10:14:08;;;;;;;2.58;2.38;;;14.70;99.90;;;;;;5074837;28;20164;-75
2022/07/07 10:16:35;;;;;;;6.88;2.00;;;15.00;99.90;;;;;;5074704;28;20192;-72
2022/07/07 10:19:01;;;;;;;3.15;1.70;;;15.00;99.90;;;;;;5073781;28;20188;-72
2022/07/07 10:21:27;;;;;;;1.58;1.50;;;15.10;99.90;;;;;;5074734;28;20171;-72
2022/07/07 10:23:53;;;;;;;2.60;1.70;;;15.20;99.90;;;;;;5074610;28;20587;-72
2022/07/07 10:26:35;;;;;;;1.80;1.70;;;15.20;99.90;;;;;;5073326;28;20210;-72
2022/07/07 10:29:01;;;;;;;2.92;1.60;;;15.30;99.90;;;;;;5074441;28;20230;-72
2022/07/07 10:31:28;;;;;;;1.98;1.48;;;15.40;99.90;;;;;;5074517;28;20164;-72
2022/07/07 10:33:54;;;;;;;2.92;1.92;;;15.40;99.90;;;;;;5074450;28;20681;-72
2022/07/07 10:36:20;;;;;;;3.17;1.90;;;15.50;99.90;;;;;;5073062;28;20291;-73
2022/07/07 10:38:50;;;;;;;2.30;2.20;;;15.70;99.90;;;;;;5074259;28;20625;-73
2022/07/07 10:41:24;;;;;;;5.80;2.40;;;15.60;99.90;;;;;;5073061;28;20168;-71
2022/07/07 10:44:03;;;;;;;2.28;2.13;;;15.70;99.90;;;;;;5074213;28;20251;-71
2022/07/07 10:46:28;;;;;;;4.40;2.20;;;15.70;99.90;;;;;;5074169;28;20172;-72
2022/07/07 10:49:09;;;;;;;2.72;1.90;;;16.00;99.90;;;;;;5074132;28;20179;-72
2022/07/07 10:51:53;;;;;;;2.60;1.80;;;16.20;99.90;;;;;;5072890;28;20179;-72
2022/07/07 10:54:37;;;;;;;2.50;2.40;;;16.20;99.90;;;;;;5074173;28;20225;-72
2022/07/07 10:57:02;;;;;;;4.13;2.90;;;16.10;99.90;;;;;;5073727;28;20303;-73
2022/07/07 10:59:28;;;;;;;3.20;3.00;;;15.90;99.90;;;;;;5073933;28;20701;-72
2022/07/07 11:02:04;;;;;;;3.20;2.95;;;15.70;99.90;;;;;;5073902;28;20204;-74
2022/07/07 11:04:41;;;;;;;5.47;3.28;;;15.50;99.90;;;;;;5073699;28;20646;-72
2022/07/07 11:07:14;;;;;;;3.03;2.92;;;15.40;99.90;;;;;;5073811;28;20176;-73
2022/07/07 11:10:00;;;;;;;3.25;2.90;;;15.40;99.90;;;;;;5073845;28;20239;-73
2022/07/07 11:12:46;;;;;;;2.60;2.50;;;15.70;99.90;;;;;;5073756;28;20218;-74
2022/07/07 11:15:18;;;;;;;3.35;2.70;;;15.80;99.90;;;;;;5072367;28;20168;-75
2022/07/07 11:17:48;;;;;;;5.63;2.30;;;16.10;99.90;;;;;;5072365;28;20573;-74
2022/07/07 11:20:21;;;;;;;2.50;2.30;;;16.40;99.90;;;;;;5073609;28;20174;-72
2022/07/07 11:22:53;;;;;;;2.63;2.53;;;16.40;99.90;;;;;;5073605;28;20653;-73
2022/07/07 11:25:21;;;;;;;2.85;2.60;;;16.60;99.90;;;;;;5073585;28;20653;-74
2022/07/07 11:27:48;;;;;;;3.20;3.03;;;16.60;99.90;;;;;;5073542;28;20196;-72
2022/07/07 11:30:14;;;;;;;4.53;3.22;;;16.40;99.90;;;;;;5072017;28;20233;-72
2022/07/07 11:32:41;;;;;;;3.85;3.55;;;16.10;99.90;;;;;;5073520;28;20200;-72
2022/07/07 11:35:12;;;;;;;3.88;3.55;;;16.10;99.90;;;;;;5073339;28;20676;-72
2022/07/07 11:37:40;;;;;;;3.42;3.10;;;16.20;99.90;;;;;;5073422;28;20568;-73
2022/07/07 11:40:22;;;;;;;6.85;3.55;;;16.30;99.90;;;;;;5073351;28;20195;-72
2022/07/07 11:42:48;;;;;;;3.72;3.47;;;16.60;99.90;;;;;;5073372;28;20533;-75
2022/07/07 11:45:22;;;;;;;3.00;2.80;;;16.90;99.90;;;;;;5072355;28;20182;-78
2022/07/07 11:47:48;;;;;;;5.88;3.42;;;17.10;99.90;;;;;;5073299;28;20205;-79
2022/07/07 11:50:15;;;;;;;4.15;3.35;;;17.00;99.90;;;;;;5071880;28;20573;-77
2022/07/07 11:52:57;;;;;;;4.22;3.33;;;17.00;99.90;;;;;;5073274;28;20652;-79
2022/07/07 11:55:23;;;;;;;4.00;3.80;;;16.70;99.90;;;;;;5073050;28;20747;-77
2022/07/07 11:57:58;;;;;;;4.22;3.80;;;16.50;99.90;;;;;;5071965;28;20259;-78
2022/07/07 12:00:27;;;;;;;3.70;3.33;;;16.20;99.90;;;;;;5073238;28;20230;-79
2022/07/07 12:02:55;;;;;;;4.60;2.92;;;15.90;99.90;;;;;;5073141;28;20181;-78
2022/07/07 12:05:23;;;;;;;4.43;2.90;;;15.60;99.90;;;;;;5073061;28;20208;-77
2022/07/07 12:07:59;;;;;;;2.90;2.80;;;15.30;99.90;;;;;;5073145;28;20187;-76
2022/07/07 12:10:30;;;;;;;3.92;2.60;;;15.20;99.90;;;;;;5073144;28;20164;-76
2022/07/07 12:13:02;;;;;;;2.72;2.40;;;15.10;99.90;;;;;;5073080;28;20168;-77
2022/07/07 12:15:29;;;;;;;3.03;2.83;;;15.10;99.90;;;;;;5073011;28;20222;-76
2022/07/07 12:17:56;;;;;;;7.82;2.90;;;15.10;99.90;;;;;;5073066;28;20160;-78
2022/07/07 12:20:22;;;;;;;5.32;3.10;;;15.10;99.90;;;;;;5072998;28;20175;-78
2022/07/07 12:22:53;;;;;;;3.90;3.67;;;15.30;99.90;;;;;;5072944;28;20543;-77
2022/07/07 12:25:19;;;;;;;4.57;4.30;;;15.50;99.90;;;;;;5072883;28;20187;-73
2022/07/07 12:28:08;;;;;;;4.75;4.13;;;15.80;99.90;;;;;;5072845;28;20247;-72
2022/07/07 12:30:49;;;;;;;4.50;4.07;;;16.10;99.90;;;;;;5072917;28;20173;-75
2022/07/07 12:33:42;;;;;;;5.85;3.85;;;16.40;99.90;;;;;;5072993;28;20243;-79
2022/07/07 12:36:15;;;;;;;5.88;3.38;;;16.70;99.90;;;;;;5072758;28;20195;-80
2022/07/07 12:38:44;;;;;;;4.97;3.75;;;16.80;99.90;;;;;;5071540;28;20187;-79
2022/07/07 12:41:24;;;;;;;5.88;3.42;;;16.70;99.90;;;;;;5071507;28;20266;-78
2022/07/07 12:43:50;;;;;;;6.90;5.13;;;16.70;99.90;;;;;;5074746;28;20642;-77
2022/07/07 12:46:16;;;;;;;7.40;5.63;;;16.50;99.90;;;;;;5076506;28;20180;-78
2022/07/07 12:48:50;;;;;;;5.90;5.40;;;16.30;99.90;;;;;;5076476;28;20168;-76
2022/07/07 12:51:25;;;;;;;5.18;4.88;;;16.30;99.90;;;;;;5076489;28;20172;-78
2022/07/07 12:53:52;;;;;;;6.43;4.65;;;16.40;99.90;;;;;;5075142;28;20678;-77
2022/07/07 12:56:19;;;;;;;4.60;4.18;;;16.60;99.90;;;;;;5076116;28;20220;-78
2022/07/07 12:58:47;;;;;;;6.13;4.85;;;16.70;99.90;;;;;;5075135;28;20218;-79
2022/07/07 13:01:22;;;;;;;4.25;3.92;;;16.80;99.90;;;;;;5076236;28;20526;-78
2022/07/07 13:03:56;;;;;;;4.45;4.25;;;17.00;99.90;;;;;;5076142;28;20263;-78
2022/07/07 13:06:28;;;;;;;4.13;3.80;;;17.20;99.90;;;;;;5076166;28;20226;-79
2022/07/07 13:08:59;;;;;;;4.15;3.85;;;17.50;99.90;;;;;;5076126;28;20172;-81
2022/07/07 13:11:30;;;;;;;5.35;3.17;;;17.50;99.90;;;;;;5076017;28;20183;-79
2022/07/07 13:14:04;;;;;;;3.10;2.95;;;17.50;99.90;;;;;;5075859;28;20173;-74
2022/07/07 13:16:33;;;;;;;3.10;2.90;;;17.40;99.90;;;;;;5075884;28;20242;-75
2022/07/07 13:19:05;;;;;;;3.42;2.63;;;17.40;99.90;;;;;;5075872;28;20655;-76
2022/07/07 13:21:37;;;;;;;3.55;2.72;;;17.40;99.90;;;;;;5075888;28;20172;-76
2022/07/07 13:24:07;;;;;;;2.67;2.47;;;17.30;99.90;;;;;;5075750;28;20194;-77
2022/07/07 13:26:38;;;;;;;3.35;3.13;;;17.10;99.90;;;;;;5075951;28;20561;-76
2022/07/07 13:29:09;;;;;;;3.10;2.90;;;16.80;99.90;;;;;;5074560;28;20607;-76
2022/07/07 13:31:41;;;;;;;4.63;3.45;;;16.60;99.90;;;;;;5075672;28;20222;-74
2022/07/07 13:34:11;;;;;;;4.25;3.47;;;16.50;99.90;;;;;;5075667;28;20168;-75
2022/07/07 13:36:43;;;;;;;3.55;3.35;;;16.50;99.90;;;;;;5074214;28;20287;-74
2022/07/07 13:39:16;;;;;;;3.60;3.30;;;16.80;99.90;;;;;;5075513;28;20172;-74
2022/07/07 13:41:46;;;;;;;4.25;2.75;;;17.10;99.90;;;;;;5075406;28;20195;-74
2022/07/07 13:44:17;;;;;;;3.33;2.28;;;17.30;99.90;;;;;;5074203;28;20625;-75
2022/07/07 13:46:45;;;;;;;2.33;2.22;;;17.50;99.90;;;;;;5075012;28;20169;-76
2022/07/07 13:49:11;;;;;;;5.70;2.22;;;17.60;99.90;;;;;;5074657;28;20175;-76
2022/07/07 13:51:37;;;;;;;3.13;2.28;;;17.50;99.90;;;;;;5075199;28;20172;-76
2022/07/07 13:54:03;;;;;;;2.60;2.30;;;17.50;99.90;;;;;;5074999;28;20645;-76
2022/07/07 13:56:29;;;;;;;4.43;2.83;;;17.70;99.90;;;;;;5073758;28;20223;-76
2022/07/07 13:58:54;;;;;;;2.95;2.75;;;17.80;99.90;;;;;;5074971;28;20168;-76
2022/07/07 14:01:20;;;;;;;3.55;3.25;;;17.50;99.90;;;;;;5075053;28;20168;-76
2022/07/07 14:03:45;;;;;;;5.78;3.63;;;17.20;99.90;;;;;;5075044;28;20184;-76
2022/07/07 14:06:11;;;;;;;4.13;3.05;;;17.00;99.90;;;;;;5075051;28;20191;-77
2022/07/07 14:08:37;;;;;;;3.50;3.30;;;16.70;99.90;;;;;;5073679;28;20176;-77
2022/07/07 14:11:03;;;;;;;3.60;3.40;;;16.70;99.90;;;;;;5074985;28;20179;-77
2022/07/07 14:13:29;;;;;;;3.75;3.50;;;16.50;99.90;;;;;;5074956;28;20346;-76
2022/07/07 14:15:55;;;;;;;3.50;3.17;;;16.40;99.90;;;;;;5074602;28;20192;-77
2022/07/07 14:18:20;;;;;;;8.40;2.95;;;16.20;99.90;;;;;;5074736;28;20248;-77
2022/07/07 14:20:46;;;;;;;5.78;2.72;;;16.40;99.90;;;;;;5074693;28;20200;-76
2022/07/07 14:23:11;;;;;;;2.63;2.53;;;16.30;99.90;;;;;;5074716;28;20164;-76
2022/07/07 14:25:37;;;;;;;2.92;2.47;;;16.60;99.90;;;;;;5073425;28;20180;-76
2022/07/07 14:28:02;;;;;;;3.83;2.38;;;16.90;99.90;;;;;;5074624;28;20634;-76
2022/07/07 14:30:28;;;;;;;2.38;2.17;;;17.20;99.90;;;;;;5074539;28;20180;-76
2022/07/07 14:32:54;;;;;;;2.17;1.95;;;17.50;99.90;;;;;;5074506;28;20172;-75
2022/07/07 14:35:19;;;;;;;3.42;1.67;;;17.80;99.90;;;;;;5074319;28;20175;-76
2022/07/07 14:37:45;;;;;;;1.90;1.80;;;18.20;99.90;;;;;;5073113;28;20218;-77
2022/07/07 14:40:10;;;;;;;2.25;1.80;;;18.40;99.90;;;;;;5074190;28;20450;-74
2022/07/07 14:42:36;;;;;;;4.45;1.83;;;18.40;99.90;;;;;;5074288;28;20605;-70
2022/07/07 14:45:02;;;;;;;4.50;1.85;;;18.40;99.90;;;;;;5074223;28;20164;-75
2022/07/07 14:47:27;;;;;;;1.73;1.67;;;18.20;99.90;;;;;;5074191;28;20195;-75
2022/07/07 14:49:53;;;;;;;2.28;1.58;;;18.10;99.90;;;;;;5074184;28;20174;-76
2022/07/07 14:52:19;;;;;;;2.55;1.90;;;18.20;99.90;;;;;;5072826;28;20204;-76
2022/07/07 14:54:45;;;;;;;2.83;1.90;;;18.00;99.90;;;;;;5072908;28;20267;-76
2022/07/07 14:57:10;;;;;;;3.13;1.95;;;17.90;99.90;;;;;;5074043;28;20312;-76
2022/07/07 14:59:36;;;;;;;2.10;1.67;;;17.90;99.90;;;;;;5073991;28;20246;-76
2022/07/07 15:02:02;;;;;;;3.13;2.00;;;17.90;99.90;;;;;;5072659;28;20187;-76
2022/07/07 15:04:27;;;;;;;2.55;2.08;;;17.80;99.90;;;;;;5073717;28;20184;-75
2022/07/07 15:06:53;;;;;;;2.85;1.98;;;17.80;99.90;;;;;;5073567;28;20180;-75
2022/07/07 15:09:19;;;;;;;2.70;2.50;;;17.80;99.90;;;;;;5073856;28;20217;-74
2022/07/07 15:11:45;;;;;;;2.22;2.05;;;17.60;99.90;;;;;;5073757;28;20168;-75
2022/07/07 15:14:11;;;;;;;2.92;1.90;;;17.50;99.90;;;;;;5073741;28;20570;-74
2022/07/07 15:16:37;;;;;;;3.65;2.03;;;17.40;99.90;;;;;;5072334;28;20537;-74
2022/07/07 15:19:03;;;;;;;2.40;2.20;;;17.40;99.90;;;;;;5073757;28;20168;-74
2022/07/07 15:21:30;;;;;;;2.38;2.17;;;17.50;99.90;;;;;;5073692;28;20164;-76
2022/07/07 15:23:55;;;;;;;2.00;1.90;;;17.70;99.90;;;;;;5073578;28;20177;-75
2022/07/07 15:26:22;;;;;;;2.20;2.00;;;18.00;99.90;;;;;;5073634;28;20172;-76
2022/07/07 15:28:49;;;;;;;2.92;2.22;;;18.10;99.90;;;;;;5072146;28;20205;-74
2022/07/07 15:31:19;;;;;;;1.83;1.73;;;18.00;99.90;;;;;;5073069;28;20168;-84
2022/07/07 15:33:49;;;;;;;2.90;1.90;;;18.00;99.90;;;;;;5073430;28;20512;-69
2022/07/07 15:36:20;;;;;;;2.67;1.83;;;17.90;99.90;;;;;;5073322;28;20196;-70
2022/07/07 15:38:49;;;;;;;7.47;2.60;;;17.80;99.90;;;;;;5073450;28;20690;-69
2022/07/07 15:41:19;;;;;;;9.30;1.65;;;17.70;99.90;;;;;;5073423;28;20171;-69
2022/07/07 15:43:47;;;;;;;3.55;1.80;;;17.80;99.90;;;;;;5073392;28;20527;-70
2022/07/07 15:46:15;;;;;;;2.42;1.80;;;17.90;99.90;;;;;;5073249;28;20172;-70
2022/07/07 15:48:45;;;;;;;2.17;1.80;;;17.80;99.90;;;;;;5073360;28;20164;-69
2022/07/07 15:51:13;;;;;;;4.35;1.92;;;17.60;99.90;;;;;;5073297;28;20224;-70
2022/07/07 15:53:39;;;;;;;4.82;2.60;;;17.50;99.90;;;;;;5073285;28;20182;-70
2022/07/07 15:56:05;;;;;;;6.53;2.03;;;17.40;99.90;;;;;;5072647;28;20725;-69
2022/07/07 15:58:33;;;;;;;2.63;1.80;;;17.40;99.90;;;;;;5071904;28;20172;-69
2022/07/07 16:01:00;;;;;;;3.60;2.03;;;17.50;99.90;;;;;;5073100;28;20503;-69
2022/07/07 16:03:26;;;;;;;6.85;2.72;;;17.50;99.90;;;;;;5073069;28;20710;-69
2022/07/07 16:05:56;;;;;;;6.20;2.20;;;17.70;99.90;;;;;;5073105;28;20254;-68
2022/07/07 16:08:23;;;;;;;5.72;2.22;;;18.20;99.90;;;;;;5073003;28;20179;-70
2022/07/07 16:10:53;;;;;;;12.68;1.95;;;18.60;99.90;;;;;;5073134;28;20275;-70
2022/07/07 16:13:21;;;;;;;3.95;1.95;;;18.50;99.90;;;;;;5072957;28;20171;-69
2022/07/07 16:15:52;;;;;;;2.90;1.88;;;18.30;99.90;;;;;;5072985;28;20657;-69
2022/07/07 16:18:19;;;;;;;5.07;2.20;;;18.40;99.90;;;;;;5075624;28;20226;-70
2022/07/07 16:20:49;;;;;;;3.60;2.03;;;18.70;99.90;;;;;;5077049;28;20164;-70
2022/07/07 16:23:20;;;;;;;4.13;1.95;;;19.10;99.90;;;;;;5076856;28;20161;-69
2022/07/07 16:26:01;;;;;;;4.93;2.53;;;19.40;99.90;;;;;;5077218;28;20198;-70
2022/07/07 16:28:30;;;;;;;3.15;1.70;;;19.70;99.90;;;;;;5076890;28;20625;-70
2022/07/07 16:31:01;;;;;;;7.60;1.73;;;19.70;99.90;;;;;;5076867;28;20176;-69
2022/07/07 16:33:32;;;;;;;3.20;1.40;;;19.90;99.90;;;;;;5076829;28;20186;-69
2022/07/07 16:36:02;;;;;;;5.32;1.67;;;20.00;99.90;;;;;;5076636;28;20211;-70
2022/07/07 16:38:35;;;;;;;2.05;1.40;;;20.50;99.90;;;;;;5076675;28;20164;-70
2022/07/07 16:41:01;;;;;;;3.88;1.60;;;20.70;99.90;;;;;;5076649;28;20171;-70
2022/07/07 16:43:33;;;;;;;17.27;1.88;;;20.80;99.90;;;;;;5075280;28;20565;-70
2022/07/07 16:45:59;;;;;;;2.63;1.75;;;21.00;99.90;;;;;;5076554;28;20188;-70
2022/07/07 16:48:30;;;;;;;5.97;1.77;;;21.40;99.90;;;;;;5075162;28;20171;-70
2022/07/07 16:51:01;;;;;;;5.32;1.90;;;21.20;99.90;;;;;;5076501;28;20164;-70
2022/07/07 16:53:30;;;;;;;3.28;1.98;;;20.40;99.90;;;;;;5076429;28;20164;-71
2022/07/07 16:55:58;;;;;;;3.75;2.15;;;19.90;99.90;;;;;;5076083;28;20216;-69
2022/07/07 16:58:28;;;;;;;4.70;2.10;;;19.10;99.90;;;;;;5076298;28;20160;-69
2022/07/07 17:00:56;;;;;;;6.13;2.10;;;18.70;99.90;;;;;;5076543;28;20497;-69
2022/07/07 17:03:24;;;;;;;10.10;2.40;;;18.30;99.90;;;;;;5076143;28;20591;-69
2022/07/07 17:05:52;;;;;;;11.60;2.60;;;18.10;99.90;;;;;;5076172;28;20168;-69
2022/07/07 17:08:22;;;;;;;6.22;2.28;;;18.00;99.90;;;;;;5076098;28;20180;-69
2022/07/07 17:10:52;;;;;;;4.97;2.45;;;18.10;99.90;;;;;;5076049;28;20590;-70
2022/07/07 17:13:19;;;;;;;9.90;1.90;;;18.00;99.90;;;;;;5076016;28;20168;-72
2022/07/07 17:15:48;;;;;;;5.53;2.45;;;18.00;99.90;;;;;;5076079;28;20248;-72
2022/07/07 17:18:19;;;;;;;8.40;2.10;;;18.20;99.90;;;;;;5075044;28;20172;-72
2022/07/07 17:20:49;;;;;;;6.43;2.20;;;18.80;99.90;;;;;;5076054;28;20218;-72
2022/07/07 17:23:19;;;;;;;3.80;1.50;;;18.60;99.90;;;;;;5076030;28;20671;-72
2022/07/07 17:25:49;;;;;;;4.68;1.77;;;18.30;99.90;;;;;;5075976;28;20195;-72
2022/07/07 17:28:19;;;;;;;4.63;2.42;;;18.30;99.90;;;;;;5075349;28;20502;-72
2022/07/07 17:30:49;;;;;;;4.00;1.83;;;18.00;99.90;;;;;;5076053;28;20175;-72
2022/07/07 17:33:18;;;;;;;10.02;2.53;;;17.90;99.90;;;;;;5075957;28;20198;-72
2022/07/07 17:35:48;;;;;;;4.82;2.65;;;17.80;99.90;;;;;;5075690;28;20188;-72
2022/07/07 17:38:15;;;;;;;5.30;2.00;;;17.60;99.90;;;;;;5075164;28;20202;-72
2022/07/07 17:40:43;;;;;;;8.32;2.55;;;17.50;99.90;;;;;;5075554;28;20168;-72
2022/07/07 17:43:12;;;;;;;7.25;2.00;;;17.30;99.90;;;;;;5075280;28;20253;-72
2022/07/07 17:45:40;;;;;;;3.67;2.00;;;17.10;99.90;;;;;;5075294;28;20191;-72
2022/07/07 17:48:06;;;;;;;7.60;1.90;;;17.10;99.90;;;;;;5075350;28;20255;-72
2022/07/07 17:50:31;;;;;;;9.40;2.33;;;16.90;99.90;;;;;;5075110;28;20214;-73
2022/07/07 17:52:57;;;;;;;8.00;2.35;;;17.10;99.90;;;;;;5073560;28;20263;-73
2022/07/07 17:55:23;;;;;;;4.45;1.60;;;17.70;99.90;;;;;;5074827;28;20220;-72
2022/07/07 17:57:48;;;;;;;7.70;2.05;;;18.00;99.90;;;;;;5075083;28;20719;-72
2022/07/07 18:00:14;;;;;;;5.65;2.20;;;17.80;99.90;;;;;;5074905;28;20168;-71
2022/07/07 18:02:40;;;;;;;4.00;2.22;;;17.70;99.90;;;;;;5075437;28;20165;-72
2022/07/07 18:05:06;;;;;;;4.32;1.70;;;17.40;99.90;;;;;;5075173;28;20165;-71
2022/07/07 18:07:31;;;;;;;7.18;2.28;;;17.10;99.90;;;;;;5075003;28;20172;-71
2022/07/07 18:09:57;;;;;;;5.57;2.05;;;17.10;99.90;;;;;;5074909;28;20559;-72
2022/07/07 18:12:22;;;;;;;5.82;2.33;;;17.10;99.90;;;;;;5075099;28;20503;-71
2022/07/07 18:14:48;;;;;;;7.00;2.13;;;17.30;99.90;;;;;;5074969;28;20169;-72
2022/07/07 18:17:14;;;;;;;7.90;2.10;;;17.30;99.90;;;;;;5074922;28;20251;-72
2022/07/07 18:19:39;;;;;;;3.88;2.30;;;17.40;99.90;;;;;;5074540;28;20172;-71
2022/07/07 18:22:05;;;;;;;4.55;2.20;;;17.20;99.90;;;;;;5074675;28;20225;-71
2022/07/07 18:24:31;;;;;;;13.27;2.17;;;16.90;99.90;;;;;;5074547;28;20164;-72
2022/07/07 18:26:56;;;;;;;5.40;1.80;;;16.70;99.90;;;;;;5074414;28;20173;-71
2022/07/07 18:29:22;;;;;;;4.07;1.90;;;16.50;99.90;;;;;;5074390;28;20214;-71
2022/07/07 18:31:48;;;;;;;5.63;1.88;;;16.50;99.90;;;;;;5073116;28;20583;-71
2022/07/07 18:34:13;;;;;;;8.15;2.08;;;16.40;99.90;;;;;;5074316;28;20164;-71
2022/07/07 18:36:39;;;;;;;6.82;2.17;;;16.40;99.90;;;;;;5074461;28;20576;-71
2022/07/07 18:39:04;;;;;;;2.10;1.63;;;16.40;99.90;;;;;;5074418;28;20180;-71
2022/07/07 18:41:30;;;;;;;8.90;2.17;;;16.20;99.90;;;;;;5073942;28;20263;-71
2022/07/07 18:43:55;;;;;;;8.93;2.88;;;16.20;99.90;;;;;;5073420;28;20498;-71
2022/07/07 18:46:21;;;;;;;10.10;2.00;;;16.10;99.90;;;;;;5074473;28;20177;-72
2022/07/07 18:48:47;;;;;;;7.35;2.10;;;16.10;99.90;;;;;;5074355;28;20184;-72
2022/07/07 18:53:56;;;;;;;5.10;1.88;;;16.00;99.90;;;;;;5074375;28;20631;-71
2022/07/07 18:56:22;;;;;;;4.65;2.60;;;16.00;99.90;;;;;;5073579;28;20255;-71
2022/07/07 18:58:48;;;;;;;4.68;1.63;;;16.00;99.90;;;;;;5072589;28;20164;-71
2022/07/07 19:01:13;;;;;;;7.25;2.10;;;16.00;99.90;;;;;;5073812;28;20168;-71
2022/07/07 19:03:39;;;;;;;6.18;2.10;;;16.00;99.90;;;;;;5073791;28;20187;-71
